sensor_id;sensor_type;location;lat;lon;timestamp;pressure;altitude;pressure_sealevel;temperature;humidity
49529;BME280;35423;37.320;-121.762;2023-05-07T00:01:52;100238.27;;;24.93;27.01
49529;BME280;35423;37.320;-121.762;2023-05-07T00:04:23;100240.68;;;25.31;26.50
49529;BME280;35423;37.320;-121.762;2023-05-07T00:06:47;100241.06;;;25.38;25.99
49529;BME280;35423;37.320;-121.762;2023-05-07T00:09:19;100243.46;;;25.27;25.61
49529;BME280;35423;37.320;-121.762;2023-05-07T00:11:46;100244.06;;;24.90;25.76
49529;BME280;35423;37.320;-121.762;2023-05-07T00:14:12;100250.36;;;25.01;26.18
49529;BME280;35423;37.320;-121.762;2023-05-07T00:16:41;100252.16;;;24.86;26.35
49529;BME280;35423;37.320;-121.762;2023-05-07T00:19:06;100251.79;;;24.99;26.25
49529;BME280;35423;37.320;-121.762;2023-05-07T00:21:33;100247.24;;;25.16;26.29
49529;BME280;35423;37.320;-121.762;2023-05-07T00:23:59;100247.79;;;25.30;25.18
49529;BME280;35423;37.320;-121.762;2023-05-07T00:26:24;100250.71;;;25.02;25.05
49529;BME280;35423;37.320;-121.762;2023-05-07T00:28:50;100250.71;;;24.90;25.07
49529;BME280;35423;37.320;-121.762;2023-05-07T00:31:15;100247.63;;;25.14;25.20
49529;BME280;35423;37.320;-121.762;2023-05-07T00:33:44;100249.92;;;25.41;25.35
49529;BME280;35423;37.320;-121.762;2023-05-07T00:36:14;100248.22;;;25.31;25.43
49529;BME280;35423;37.320;-121.762;2023-05-07T00:38:42;100248.93;;;24.97;25.14
49529;BME280;35423;37.320;-121.762;2023-05-07T00:41:07;100251.14;;;25.26;25.20
49529;BME280;35423;37.320;-121.762;2023-05-07T00:43:35;100250.82;;;25.30;25.22
49529;BME280;35423;37.320;-121.762;2023-05-07T00:46:00;100249.86;;;25.09;25.03
49529;BME280;35423;37.320;-121.762;2023-05-07T00:48:27;100247.10;;;25.25;24.92
49529;BME280;35423;37.320;-121.762;2023-05-07T00:50:52;100245.60;;;25.17;24.94
49529;BME280;35423;37.320;-121.762;2023-05-07T00:53:20;100243.00;;;25.03;25.06
49529;BME280;35423;37.320;-121.762;2023-05-07T00:55:52;100245.18;;;24.70;25.32
49529;BME280;35423;37.320;-121.762;2023-05-07T00:58:19;100242.65;;;24.97;25.31
49529;BME280;35423;37.320;-121.762;2023-05-07T01:00:48;100241.98;;;24.98;25.29
49529;BME280;35423;37.320;-121.762;2023-05-07T01:03:15;100246.04;;;24.71;25.56
49529;BME280;35423;37.320;-121.762;2023-05-07T01:05:42;100242.92;;;24.83;25.37
49529;BME280;35423;37.320;-121.762;2023-05-07T01:08:08;100245.22;;;25.06;25.25
49529;BME280;35423;37.320;-121.762;2023-05-07T01:10:33;100246.10;;;25.06;25.39
49529;BME280;35423;37.320;-121.762;2023-05-07T01:13:01;100250.23;;;24.79;25.71
49529;BME280;35423;37.320;-121.762;2023-05-07T01:15:28;100249.85;;;24.79;25.68
49529;BME280;35423;37.320;-121.762;2023-05-07T01:17:54;100244.76;;;25.05;25.36
49529;BME280;35423;37.320;-121.762;2023-05-07T01:20:19;100249.06;;;25.29;25.44
49529;BME280;35423;37.320;-121.762;2023-05-07T01:22:44;100251.54;;;25.03;25.34
49529;BME280;35423;37.320;-121.762;2023-05-07T01:25:15;100253.13;;;24.98;25.37
49529;BME280;35423;37.320;-121.762;2023-05-07T01:27:41;100256.99;;;25.11;25.41
49529;BME280;35423;37.320;-121.762;2023-05-07T01:30:08;100259.91;;;25.16;25.12
49529;BME280;35423;37.320;-121.762;2023-05-07T01:32:38;100262.16;;;24.81;25.08
49529;BME280;35423;37.320;-121.762;2023-05-07T01:35:04;100264.01;;;24.99;25.23
49529;BME280;35423;37.320;-121.762;2023-05-07T01:37:33;100263.93;;;24.95;25.16
49529;BME280;35423;37.320;-121.762;2023-05-07T01:40:01;100263.18;;;24.64;25.18
49529;BME280;35423;37.320;-121.762;2023-05-07T01:42:29;100258.15;;;24.74;25.39
49529;BME280;35423;37.320;-121.762;2023-05-07T01:44:56;100255.80;;;24.68;25.49
49529;BME280;35423;37.320;-121.762;2023-05-07T01:47:22;100253.42;;;24.62;25.53
49529;BME280;35423;37.320;-121.762;2023-05-07T01:49:50;100252.28;;;24.55;25.56
49529;BME280;35423;37.320;-121.762;2023-05-07T01:52:19;100253.23;;;24.55;25.41
49529;BME280;35423;37.320;-121.762;2023-05-07T01:54:59;100254.35;;;24.51;25.29
49529;BME280;35423;37.320;-121.762;2023-05-07T01:57:27;100250.24;;;24.39;25.58
49529;BME280;35423;37.320;-121.762;2023-05-07T01:59:52;100250.46;;;24.39;25.63
49529;BME280;35423;37.320;-121.762;2023-05-07T02:02:20;100250.43;;;23.84;25.73
49529;BME280;35423;37.320;-121.762;2023-05-07T02:04:47;100251.52;;;24.23;25.62
49529;BME280;35423;37.320;-121.762;2023-05-07T02:07:14;100253.50;;;24.12;25.97
49529;BME280;35423;37.320;-121.762;2023-05-07T02:09:42;100254.09;;;23.86;26.07
49529;BME280;35423;37.320;-121.762;2023-05-07T02:12:08;100258.46;;;23.98;26.05
49529;BME280;35423;37.320;-121.762;2023-05-07T02:14:36;100255.35;;;24.09;25.98
49529;BME280;35423;37.320;-121.762;2023-05-07T02:17:01;100251.73;;;23.80;26.06
49529;BME280;35423;37.320;-121.762;2023-05-07T02:19:30;100251.08;;;23.78;26.07
49529;BME280;35423;37.320;-121.762;2023-05-07T02:21:55;100254.55;;;23.67;26.01
49529;BME280;35423;37.320;-121.762;2023-05-07T02:24:22;100259.91;;;23.84;26.02
49529;BME280;35423;37.320;-121.762;2023-05-07T02:26:48;100258.69;;;23.72;26.08
49529;BME280;35423;37.320;-121.762;2023-05-07T02:29:16;100262.89;;;23.63;26.14
49529;BME280;35423;37.320;-121.762;2023-05-07T02:31:46;100264.02;;;23.34;26.21
49529;BME280;35423;37.320;-121.762;2023-05-07T02:34:12;100265.99;;;23.45;26.39
49529;BME280;35423;37.320;-121.762;2023-05-07T02:36:38;100265.23;;;23.16;26.54
49529;BME280;35423;37.320;-121.762;2023-05-07T02:39:04;100267.53;;;23.31;26.65
49529;BME280;35423;37.320;-121.762;2023-05-07T02:41:29;100266.80;;;23.27;26.56
49529;BME280;35423;37.320;-121.762;2023-05-07T02:43:58;100265.29;;;23.44;26.63
49529;BME280;35423;37.320;-121.762;2023-05-07T02:46:26;100269.29;;;23.11;26.62
49529;BME280;35423;37.320;-121.762;2023-05-07T02:48:52;100270.24;;;23.07;26.78
49529;BME280;35423;37.320;-121.762;2023-05-07T02:51:20;100274.06;;;23.01;26.97
49529;BME280;35423;37.320;-121.762;2023-05-07T02:53:47;100274.09;;;22.75;26.99
49529;BME280;35423;37.320;-121.762;2023-05-07T02:56:13;100279.43;;;23.20;27.02
49529;BME280;35423;37.320;-121.762;2023-05-07T02:58:38;100281.09;;;22.86;27.01
49529;BME280;35423;37.320;-121.762;2023-05-07T03:01:06;100279.69;;;23.02;27.04
49529;BME280;35423;37.320;-121.762;2023-05-07T03:03:33;100280.46;;;22.93;27.18
49529;BME280;35423;37.320;-121.762;2023-05-07T03:05:59;100286.26;;;22.62;27.43
49529;BME280;35423;37.320;-121.762;2023-05-07T03:08:35;100286.94;;;22.86;27.68
49529;BME280;35423;37.320;-121.762;2023-05-07T03:11:01;100288.31;;;23.32;27.92
49529;BME280;35423;37.320;-121.762;2023-05-07T03:13:27;100290.80;;;22.88;28.19
49529;BME280;35423;37.320;-121.762;2023-05-07T03:16:00;100290.61;;;22.84;28.44
49529;BME280;35423;37.320;-121.762;2023-05-07T03:18:26;100289.03;;;22.81;28.45
49529;BME280;35423;37.320;-121.762;2023-05-07T03:20:56;100290.10;;;22.55;28.71
49529;BME280;35423;37.320;-121.762;2023-05-07T03:23:22;100290.00;;;22.81;28.97
49529;BME280;35423;37.320;-121.762;2023-05-07T03:25:48;100288.79;;;22.81;29.12
49529;BME280;35423;37.320;-121.762;2023-05-07T03:28:16;100287.40;;;22.79;29.05
49529;BME280;35423;37.320;-121.762;2023-05-07T03:30:42;100289.30;;;22.79;29.15
49529;BME280;35423;37.320;-121.762;2023-05-07T03:33:08;100293.00;;;22.78;29.28
49529;BME280;35423;37.320;-121.762;2023-05-07T03:35:45;100296.86;;;22.99;29.46
49529;BME280;35423;37.320;-121.762;2023-05-07T03:38:12;100299.38;;;22.81;29.60
49529;BME280;35423;37.320;-121.762;2023-05-07T03:40:45;100301.04;;;22.81;29.65
49529;BME280;35423;37.320;-121.762;2023-05-07T03:43:12;100302.61;;;22.81;29.72
49529;BME280;35423;37.320;-121.762;2023-05-07T03:45:39;100299.61;;;22.79;29.76
49529;BME280;35423;37.320;-121.762;2023-05-07T03:48:05;100300.21;;;22.75;29.64
49529;BME280;35423;37.320;-121.762;2023-05-07T03:50:30;100298.80;;;22.69;29.22
49529;BME280;35423;37.320;-121.762;2023-05-07T03:52:55;100300.81;;;22.64;29.56
49529;BME280;35423;37.320;-121.762;2023-05-07T03:55:23;100298.80;;;22.60;29.53
49529;BME280;35423;37.320;-121.762;2023-05-07T03:57:47;100298.17;;;22.54;29.91
49529;BME280;35423;37.320;-121.762;2023-05-07T04:00:15;100297.57;;;22.45;29.80
49529;BME280;35423;37.320;-121.762;2023-05-07T04:02:42;100302.06;;;22.37;29.90
49529;BME280;35423;37.320;-121.762;2023-05-07T04:05:09;100303.62;;;22.51;30.36
49529;BME280;35423;37.320;-121.762;2023-05-07T04:07:36;100304.72;;;22.27;30.61
49529;BME280;35423;37.320;-121.762;2023-05-07T04:09:59;100306.87;;;22.49;30.77
49529;BME280;35423;37.320;-121.762;2023-05-07T04:12:27;100306.94;;;22.30;30.87
49529;BME280;35423;37.320;-121.762;2023-05-07T04:14:58;100306.57;;;22.31;30.92
49529;BME280;35423;37.320;-121.762;2023-05-07T04:17:24;100306.45;;;22.33;30.67
49529;BME280;35423;37.320;-121.762;2023-05-07T04:19:52;100307.59;;;22.59;30.38
49529;BME280;35423;37.320;-121.762;2023-05-07T04:22:20;100308.79;;;22.34;29.87
49529;BME280;35423;37.320;-121.762;2023-05-07T04:24:47;100309.46;;;22.31;29.47
49529;BME280;35423;37.320;-121.762;2023-05-07T04:27:16;100308.50;;;22.45;29.63
49529;BME280;35423;37.320;-121.762;2023-05-07T04:29:44;100311.17;;;22.16;29.58
49529;BME280;35423;37.320;-121.762;2023-05-07T04:32:13;100310.98;;;22.32;29.44
49529;BME280;35423;37.320;-121.762;2023-05-07T04:34:47;100310.20;;;22.51;29.18
49529;BME280;35423;37.320;-121.762;2023-05-07T04:37:13;100311.16;;;22.02;29.04
49529;BME280;35423;37.320;-121.762;2023-05-07T04:39:46;100314.34;;;21.98;29.10
49529;BME280;35423;37.320;-121.762;2023-05-07T04:42:08;100312.79;;;22.22;28.95
49529;BME280;35423;37.320;-121.762;2023-05-07T04:44:34;100313.06;;;22.23;28.85
49529;BME280;35423;37.320;-121.762;2023-05-07T04:47:01;100315.20;;;21.99;28.90
49529;BME280;35423;37.320;-121.762;2023-05-07T04:49:31;100320.58;;;22.00;28.46
49529;BME280;35423;37.320;-121.762;2023-05-07T04:51:55;100326.44;;;21.96;28.45
49529;BME280;35423;37.320;-121.762;2023-05-07T04:54:23;100327.47;;;22.40;28.44
49529;BME280;35423;37.320;-121.762;2023-05-07T04:56:52;100328.83;;;21.98;28.39
49529;BME280;35423;37.320;-121.762;2023-05-07T04:59:18;100327.61;;;21.96;28.69
49529;BME280;35423;37.320;-121.762;2023-05-07T05:01:45;100327.69;;;21.95;28.84
49529;BME280;35423;37.320;-121.762;2023-05-07T05:04:16;100328.80;;;22.64;28.93
49529;BME280;35423;37.320;-121.762;2023-05-07T05:06:43;100329.68;;;21.88;28.79
49529;BME280;35423;37.320;-121.762;2023-05-07T05:09:11;100331.23;;;22.09;28.64
49529;BME280;35423;37.320;-121.762;2023-05-07T05:11:37;100331.16;;;22.27;28.51
49529;BME280;35423;37.320;-121.762;2023-05-07T05:14:03;100333.00;;;21.99;28.80
49529;BME280;35423;37.320;-121.762;2023-05-07T05:16:28;100330.35;;;21.93;28.88
49529;BME280;35423;37.320;-121.762;2023-05-07T05:18:56;100330.52;;;21.90;28.81
49529;BME280;35423;37.320;-121.762;2023-05-07T05:21:22;100332.00;;;21.78;28.77
49529;BME280;35423;37.320;-121.762;2023-05-07T05:23:48;100330.34;;;21.66;28.83
49529;BME280;35423;37.320;-121.762;2023-05-07T05:26:13;100334.18;;;21.77;28.97
49529;BME280;35423;37.320;-121.762;2023-05-07T05:28:39;100335.25;;;21.68;29.39
49529;BME280;35423;37.320;-121.762;2023-05-07T05:31:06;100333.58;;;21.63;29.40
49529;BME280;35423;37.320;-121.762;2023-05-07T05:33:35;100334.05;;;21.34;29.33
49529;BME280;35423;37.320;-121.762;2023-05-07T05:36:02;100335.01;;;21.51;29.38
49529;BME280;35423;37.320;-121.762;2023-05-07T05:38:32;100339.63;;;21.45;29.56
49529;BME280;35423;37.320;-121.762;2023-05-07T05:40:57;100336.62;;;21.40;29.74
49529;BME280;35423;37.320;-121.762;2023-05-07T05:43:44;100339.38;;;21.61;29.90
49529;BME280;35423;37.320;-121.762;2023-05-07T05:46:11;100340.90;;;21.30;30.27
49529;BME280;35423;37.320;-121.762;2023-05-07T05:48:41;100342.11;;;21.30;30.31
49529;BME280;35423;37.320;-121.762;2023-05-07T05:51:09;100340.42;;;21.26;30.29
49529;BME280;35423;37.320;-121.762;2023-05-07T05:53:39;100336.97;;;21.46;30.22
49529;BME280;35423;37.320;-121.762;2023-05-07T05:56:01;100336.80;;;21.14;30.43
49529;BME280;35423;37.320;-121.762;2023-05-07T05:58:28;100339.73;;;21.34;30.55
49529;BME280;35423;37.320;-121.762;2023-05-07T06:00:59;100341.17;;;21.47;30.77
49529;BME280;35423;37.320;-121.762;2023-05-07T06:03:24;100341.86;;;21.22;30.81
49529;BME280;35423;37.320;-121.762;2023-05-07T06:05:55;100339.34;;;21.20;30.78
49529;BME280;35423;37.320;-121.762;2023-05-07T06:08:21;100337.12;;;20.87;30.90
49529;BME280;35423;37.320;-121.762;2023-05-07T06:10:48;100339.15;;;21.10;31.06
49529;BME280;35423;37.320;-121.762;2023-05-07T06:13:17;100337.45;;;20.78;31.08
49529;BME280;35423;37.320;-121.762;2023-05-07T06:15:44;100337.42;;;21.26;31.20
49529;BME280;35423;37.320;-121.762;2023-05-07T06:18:10;100338.04;;;20.76;31.06
49529;BME280;35423;37.320;-121.762;2023-05-07T06:20:36;100335.64;;;20.70;31.25
49529;BME280;35423;37.320;-121.762;2023-05-07T06:23:07;100336.84;;;20.66;31.32
49529;BME280;35423;37.320;-121.762;2023-05-07T06:25:39;100335.29;;;21.12;31.43
49529;BME280;35423;37.320;-121.762;2023-05-07T06:28:03;100331.60;;;21.08;31.41
49529;BME280;35423;37.320;-121.762;2023-05-07T06:30:37;100333.44;;;21.06;31.46
49529;BME280;35423;37.320;-121.762;2023-05-07T06:33:12;100333.45;;;21.03;31.58
49529;BME280;35423;37.320;-121.762;2023-05-07T06:35:38;100333.45;;;20.83;31.72
49529;BME280;35423;37.320;-121.762;2023-05-07T06:38:11;100330.52;;;21.10;31.82
49529;BME280;35423;37.320;-121.762;2023-05-07T06:40:37;100330.32;;;20.88;31.89
49529;BME280;35423;37.320;-121.762;2023-05-07T06:43:03;100328.07;;;20.89;31.88
49529;BME280;35423;37.320;-121.762;2023-05-07T06:45:37;100328.06;;;21.13;31.89
49529;BME280;35423;37.320;-121.762;2023-05-07T06:48:02;100332.29;;;20.94;31.89
49529;BME280;35423;37.320;-121.762;2023-05-07T06:50:30;100333.22;;;20.98;31.96
49529;BME280;35423;37.320;-121.762;2023-05-07T06:52:56;100332.62;;;21.00;31.98
49529;BME280;35423;37.320;-121.762;2023-05-07T06:55:34;100336.28;;;21.21;31.96
49529;BME280;35423;37.320;-121.762;2023-05-07T06:58:00;100339.32;;;20.97;31.98
49529;BME280;35423;37.320;-121.762;2023-05-07T07:00:27;100340.54;;;21.11;31.98
49529;BME280;35423;37.320;-121.762;2023-05-07T07:02:57;100343.12;;;21.06;31.39
49529;BME280;35423;37.320;-121.762;2023-05-07T07:05:28;100342.17;;;20.89;31.47
49529;BME280;35423;37.320;-121.762;2023-05-07T07:08:05;100342.82;;;21.18;31.81
49529;BME280;35423;37.320;-121.762;2023-05-07T07:10:30;100343.95;;;20.85;32.06
49529;BME280;35423;37.320;-121.762;2023-05-07T07:12:57;100344.07;;;20.71;32.19
49529;BME280;35423;37.320;-121.762;2023-05-07T07:15:22;100348.21;;;20.87;32.19
49529;BME280;35423;37.320;-121.762;2023-05-07T07:17:49;100349.89;;;20.75;32.12
49529;BME280;35423;37.320;-121.762;2023-05-07T07:20:40;100346.65;;;20.60;32.41
49529;BME280;35423;37.320;-121.762;2023-05-07T07:23:07;100345.40;;;20.49;32.30
49529;BME280;35423;37.320;-121.762;2023-05-07T07:25:48;100346.96;;;20.39;32.46
49529;BME280;35423;37.320;-121.762;2023-05-07T07:28:13;100346.63;;;20.32;32.65
49529;BME280;35423;37.320;-121.762;2023-05-07T07:30:41;100343.82;;;20.25;32.62
49529;BME280;35423;37.320;-121.762;2023-05-07T07:33:09;100340.07;;;20.15;32.62
49529;BME280;35423;37.320;-121.762;2023-05-07T07:35:35;100339.61;;;20.10;32.73
49529;BME280;35423;37.320;-121.762;2023-05-07T07:38:02;100341.98;;;20.06;32.73
49529;BME280;35423;37.320;-121.762;2023-05-07T07:40:35;100347.43;;;19.99;32.78
49529;BME280;35423;37.320;-121.762;2023-05-07T07:42:59;100347.07;;;20.03;32.91
49529;BME280;35423;37.320;-121.762;2023-05-07T07:45:25;100348.07;;;20.05;32.93
49529;BME280;35423;37.320;-121.762;2023-05-07T07:47:54;100347.47;;;20.09;32.88
49529;BME280;35423;37.320;-121.762;2023-05-07T07:50:19;100342.56;;;20.11;32.90
49529;BME280;35423;37.320;-121.762;2023-05-07T07:52:45;100335.88;;;20.11;32.91
49529;BME280;35423;37.320;-121.762;2023-05-07T07:55:11;100335.22;;;19.89;32.80
49529;BME280;35423;37.320;-121.762;2023-05-07T07:57:39;100332.52;;;20.09;32.86
49529;BME280;35423;37.320;-121.762;2023-05-07T08:00:07;100333.83;;;20.07;32.90
49529;BME280;35423;37.320;-121.762;2023-05-07T08:02:31;100339.43;;;20.10;33.05
49529;BME280;35423;37.320;-121.762;2023-05-07T08:04:58;100343.10;;;20.12;33.04
49529;BME280;35423;37.320;-121.762;2023-05-07T08:07:27;100341.79;;;20.14;33.16
49529;BME280;35423;37.320;-121.762;2023-05-07T08:09:58;100339.76;;;20.19;33.14
49529;BME280;35423;37.320;-121.762;2023-05-07T08:12:18;100335.46;;;20.20;33.22
49529;BME280;35423;37.320;-121.762;2023-05-07T08:14:45;100336.25;;;20.21;33.20
49529;BME280;35423;37.320;-121.762;2023-05-07T08:17:09;100336.78;;;20.20;33.21
49529;BME280;35423;37.320;-121.762;2023-05-07T08:19:47;100335.80;;;20.46;33.35
49529;BME280;35423;37.320;-121.762;2023-05-07T08:22:13;100333.94;;;20.20;33.40
49529;BME280;35423;37.320;-121.762;2023-05-07T08:24:49;100331.24;;;20.17;33.40
49529;BME280;35423;37.320;-121.762;2023-05-07T08:27:20;100330.12;;;20.36;33.33
49529;BME280;35423;37.320;-121.762;2023-05-07T08:30:03;100330.13;;;20.36;33.36
49529;BME280;35423;37.320;-121.762;2023-05-07T08:32:31;100331.28;;;20.07;33.39
49529;BME280;35423;37.320;-121.762;2023-05-07T08:34:56;100329.27;;;20.05;33.48
49529;BME280;35423;37.320;-121.762;2023-05-07T08:37:22;100327.38;;;20.26;33.44
49529;BME280;35423;37.320;-121.762;2023-05-07T08:39:52;100327.68;;;19.96;33.50
49529;BME280;35423;37.320;-121.762;2023-05-07T08:42:25;100327.23;;;19.93;33.50
49529;BME280;35423;37.320;-121.762;2023-05-07T08:45:00;100329.52;;;20.23;33.60
49529;BME280;35423;37.320;-121.762;2023-05-07T08:47:43;100328.28;;;20.48;33.63
49529;BME280;35423;37.320;-121.762;2023-05-07T08:49:57;100330.38;;;20.03;33.58
49529;BME280;35423;37.320;-121.762;2023-05-07T08:52:30;100326.48;;;20.05;33.61
49529;BME280;35423;37.320;-121.762;2023-05-07T08:54:57;100324.58;;;19.83;33.70
49529;BME280;35423;37.320;-121.762;2023-05-07T08:57:29;100327.32;;;20.08;33.68
49529;BME280;35423;37.320;-121.762;2023-05-07T08:59:55;100324.27;;;20.33;33.74
49529;BME280;35423;37.320;-121.762;2023-05-07T09:02:28;100324.47;;;20.48;33.76
49529;BME280;35423;37.320;-121.762;2023-05-07T09:04:59;100326.70;;;20.22;33.76
49529;BME280;35423;37.320;-121.762;2023-05-07T09:07:25;100327.76;;;19.93;33.80
49529;BME280;35423;37.320;-121.762;2023-05-07T09:09:53;100326.56;;;20.41;33.59
49529;BME280;35423;37.320;-121.762;2023-05-07T09:12:22;100324.56;;;19.91;33.70
49529;BME280;35423;37.320;-121.762;2023-05-07T09:14:46;100319.59;;;19.93;33.72
49529;BME280;35423;37.320;-121.762;2023-05-07T09:17:16;100319.82;;;19.99;33.75
49529;BME280;35423;37.320;-121.762;2023-05-07T09:19:43;100327.82;;;20.25;33.82
49529;BME280;35423;37.320;-121.762;2023-05-07T09:22:08;100326.71;;;19.98;33.87
49529;BME280;35423;37.320;-121.762;2023-05-07T09:24:49;100324.65;;;20.20;33.86
49529;BME280;35423;37.320;-121.762;2023-05-07T09:27:12;100320.46;;;20.11;33.78
49529;BME280;35423;37.320;-121.762;2023-05-07T09:29:46;100317.71;;;20.30;33.83
49529;BME280;35423;37.320;-121.762;2023-05-07T09:32:21;100318.01;;;19.84;33.91
49529;BME280;35423;37.320;-121.762;2023-05-07T09:34:50;100318.60;;;20.09;33.94
49529;BME280;35423;37.320;-121.762;2023-05-07T09:37:26;100315.53;;;20.09;34.01
49529;BME280;35423;37.320;-121.762;2023-05-07T09:39:59;100314.31;;;20.12;34.07
49529;BME280;35423;37.320;-121.762;2023-05-07T09:42:27;100312.31;;;20.15;34.09
49529;BME280;35423;37.320;-121.762;2023-05-07T09:44:55;100312.41;;;19.91;34.08
49529;BME280;35423;37.320;-121.762;2023-05-07T09:47:25;100309.33;;;19.93;34.03
49529;BME280;35423;37.320;-121.762;2023-05-07T09:49:51;100309.45;;;19.93;33.99
49529;BME280;35423;37.320;-121.762;2023-05-07T09:52:18;100309.87;;;19.92;34.06
49529;BME280;35423;37.320;-121.762;2023-05-07T09:54:46;100312.82;;;19.94;33.99
49529;BME280;35423;37.320;-121.762;2023-05-07T09:57:11;100316.24;;;19.93;33.90
49529;BME280;35423;37.320;-121.762;2023-05-07T09:59:46;100316.75;;;20.43;33.90
49529;BME280;35423;37.320;-121.762;2023-05-07T10:02:21;100313.70;;;20.40;33.91
49529;BME280;35423;37.320;-121.762;2023-05-07T10:04:46;100311.88;;;19.89;34.03
49529;BME280;35423;37.320;-121.762;2023-05-07T10:07:13;100310.52;;;20.20;34.17
49529;BME280;35423;37.320;-121.762;2023-05-07T10:09:42;100309.00;;;19.98;34.08
49529;BME280;35423;37.320;-121.762;2023-05-07T10:12:04;100306.23;;;19.98;34.07
49529;BME280;35423;37.320;-121.762;2023-05-07T10:14:32;100307.50;;;20.46;34.05
49529;BME280;35423;37.320;-121.762;2023-05-07T10:16:57;100305.81;;;19.95;34.08
49529;BME280;35423;37.320;-121.762;2023-05-07T10:19:30;100302.88;;;20.45;33.99
49529;BME280;35423;37.320;-121.762;2023-05-07T10:22:06;100299.04;;;20.44;33.90
49529;BME280;35423;37.320;-121.762;2023-05-07T10:24:43;100295.27;;;20.15;33.83
49529;BME280;35423;37.320;-121.762;2023-05-07T10:27:05;100295.76;;;19.83;33.87
49529;BME280;35423;37.320;-121.762;2023-05-07T10:29:45;100298.61;;;19.80;33.90
49529;BME280;35423;37.320;-121.762;2023-05-07T10:34:47;100296.51;;;20.28;33.71
49529;BME280;35423;37.320;-121.762;2023-05-07T10:37:12;100296.94;;;20.24;33.63
49529;BME280;35423;37.320;-121.762;2023-05-07T10:39:39;100293.98;;;20.01;33.39
49529;BME280;35423;37.320;-121.762;2023-05-07T10:42:16;100296.36;;;20.23;33.44
49529;BME280;35423;37.320;-121.762;2023-05-07T10:44:42;100298.31;;;19.71;33.42
49529;BME280;35423;37.320;-121.762;2023-05-07T10:47:15;100297.37;;;20.23;33.37
49529;BME280;35423;37.320;-121.762;2023-05-07T10:52:12;100296.41;;;20.06;33.07
49529;BME280;35423;37.320;-121.762;2023-05-07T10:54:37;100297.21;;;20.29;33.09
49529;BME280;35423;37.320;-121.762;2023-05-07T10:59:36;100291.32;;;20.03;32.80
49529;BME280;35423;37.320;-121.762;2023-05-07T11:02:09;100291.31;;;20.01;32.78
49529;BME280;35423;37.320;-121.762;2023-05-07T11:07:24;100290.17;;;20.17;33.05
49529;BME280;35423;37.320;-121.762;2023-05-07T11:12:11;100287.61;;;19.72;32.90
49529;BME280;35423;37.320;-121.762;2023-05-07T11:14:44;100290.08;;;20.21;32.98
49529;BME280;35423;37.320;-121.762;2023-05-07T11:17:12;100286.42;;;20.21;32.88
49529;BME280;35423;37.320;-121.762;2023-05-07T11:24:39;100288.06;;;19.70;32.78
49529;BME280;35423;37.320;-121.762;2023-05-07T11:26:58;100288.61;;;19.93;32.79
49529;BME280;35423;37.320;-121.762;2023-05-07T11:29:26;100288.63;;;20.10;32.85
49529;BME280;35423;37.320;-121.762;2023-05-07T11:31:53;100287.12;;;19.55;32.80
49529;BME280;35423;37.320;-121.762;2023-05-07T11:34:22;100286.79;;;20.00;32.85
49529;BME280;35423;37.320;-121.762;2023-05-07T11:36:46;100285.17;;;19.96;33.00
49529;BME280;35423;37.320;-121.762;2023-05-07T11:41:42;100283.13;;;19.73;32.88
49529;BME280;35423;37.320;-121.762;2023-05-07T11:44:10;100285.55;;;19.76;32.90
49529;BME280;35423;37.320;-121.762;2023-05-07T11:46:35;100287.95;;;19.97;32.69
49529;BME280;35423;37.320;-121.762;2023-05-07T11:49:02;100286.02;;;19.95;32.54
49529;BME280;35423;37.320;-121.762;2023-05-07T11:51:31;100283.14;;;19.69;32.39
49529;BME280;35423;37.320;-121.762;2023-05-07T11:53:56;100279.25;;;19.84;32.34
49529;BME280;35423;37.320;-121.762;2023-05-07T11:56:22;100279.65;;;19.84;32.48
49529;BME280;35423;37.320;-121.762;2023-05-07T11:58:53;100281.22;;;19.61;32.52
49529;BME280;35423;37.320;-121.762;2023-05-07T12:01:19;100279.14;;;19.82;32.56
49529;BME280;35423;37.320;-121.762;2023-05-07T12:03:46;100276.01;;;19.85;32.49
49529;BME280;35423;37.320;-121.762;2023-05-07T12:06:16;100274.90;;;19.83;32.43
49529;BME280;35423;37.320;-121.762;2023-05-07T12:08:41;100277.75;;;19.83;32.46
49529;BME280;35423;37.320;-121.762;2023-05-07T12:11:08;100279.83;;;19.63;32.54
49529;BME280;35423;37.320;-121.762;2023-05-07T12:13:45;100285.44;;;19.88;32.52
49529;BME280;35423;37.320;-121.762;2023-05-07T12:16:12;100287.52;;;19.85;32.51
49529;BME280;35423;37.320;-121.762;2023-05-07T12:18:38;100290.16;;;19.83;32.46
49529;BME280;35423;37.320;-121.762;2023-05-07T12:21:06;100290.10;;;19.83;32.50
49529;BME280;35423;37.320;-121.762;2023-05-07T12:23:40;100289.94;;;19.81;32.57
49529;BME280;35423;37.320;-121.762;2023-05-07T12:26:11;100289.35;;;19.81;32.48
49529;BME280;35423;37.320;-121.762;2023-05-07T12:28:37;100290.68;;;19.57;32.56
49529;BME280;35423;37.320;-121.762;2023-05-07T12:31:02;100290.39;;;19.56;32.53
49529;BME280;35423;37.320;-121.762;2023-05-07T12:33:31;100286.82;;;19.76;32.51
49529;BME280;35423;37.320;-121.762;2023-05-07T12:35:57;100288.83;;;19.72;32.36
49529;BME280;35423;37.320;-121.762;2023-05-07T12:38:24;100285.92;;;19.71;32.35
49529;BME280;35423;37.320;-121.762;2023-05-07T12:40:54;100281.29;;;19.47;32.38
49529;BME280;35423;37.320;-121.762;2023-05-07T12:43:30;100279.31;;;19.67;32.29
49529;BME280;35423;37.320;-121.762;2023-05-07T12:45:57;100279.05;;;19.64;32.33